Time;durP1;ratioP1;P1;durP2;ratioP2;P2;SDS_P1;SDS_P2;PMS_P1;PMS_P2;Temp;Humidity;BMP_temperature;BMP_pressure;BME280_temperature;BME280_humidity;BME280_pressure;Samples;Min_cycle;Max_cycle;Signal;HPM_P1;HPM_P2
2023/06/19 00:02:22;;;;;;;7.85;6.07;;;;;;;24.36;43.84;99177.00;12237820;19;20011;-81
2023/06/19 00:06:23;;;;;;;8.80;6.53;;;;;;;24.30;44.22;99168.81;12238248;19;20389;-80
2023/06/19 00:10:25;;;;;;;9.83;7.10;;;;;;;24.24;43.31;99172.22;12234867;19;20066;-79
2023/06/19 00:14:27;;;;;;;10.65;6.65;;;;;;;24.22;43.85;99171.78;12236077;19;20017;-79
2023/06/19 00:18:29;;;;;;;8.13;6.50;;;;;;;24.15;44.33;99174.34;12233029;19;20039;-80
2023/06/19 00:22:31;;;;;;;7.73;6.13;;;;;;;24.08;44.69;99167.34;12238866;19;20014;-78
2023/06/19 00:26:33;;;;;;;8.18;6.53;;;;;;;23.97;44.58;99160.56;12234378;19;20010;-78
2023/06/19 00:30:35;;;;;;;7.40;6.17;;;;;;;23.81;45.63;99163.28;12238816;19;20070;-81
2023/06/19 00:34:37;;;;;;;9.93;6.90;;;;;;;23.65;44.31;99162.38;12244048;19;20515;-80
2023/06/19 00:38:39;;;;;;;9.83;7.00;;;;;;;23.53;44.04;99166.00;12244548;19;20014;-80
2023/06/19 00:42:40;;;;;;;8.77;6.65;;;;;;;23.46;44.44;99159.31;12242406;19;20297;-79
2023/06/19 00:46:42;;;;;;;11.70;6.50;;;;;;;23.33;44.77;99162.13;12244994;19;20373;-80
2023/06/19 00:50:44;;;;;;;9.80;6.03;;;;;;;23.13;45.72;99158.25;12240544;19;20162;-79
2023/06/19 00:54:46;;;;;;;8.98;6.60;;;;;;;22.95;45.90;99173.66;12245543;19;20014;-79
2023/06/19 00:58:48;;;;;;;7.73;6.50;;;;;;;22.80;46.02;99185.53;12243603;19;20019;-80
2023/06/19 01:02:50;;;;;;;8.57;6.73;;;;;;;22.64;46.83;99213.47;12245162;19;20019;-79
2023/06/19 01:06:59;;;;;;;9.43;6.65;;;;;;;22.57;47.44;99197.16;12248328;19;20271;-78
2023/06/19 01:11:04;;;;;;;11.60;6.38;;;;;;;22.53;48.50;99201.84;12248140;19;20006;-80
2023/06/19 01:15:26;;;;;;;13.70;7.57;;;;;;;22.47;49.87;99189.19;12249458;19;20075;-79
2023/06/19 01:19:28;;;;;;;12.20;8.18;;;;;;;22.41;51.23;99201.78;12246613;19;20500;-79
2023/06/19 01:23:30;;;;;;;11.18;7.68;;;;;;;22.32;52.27;99189.81;12245744;19;20023;-80
2023/06/19 01:27:33;;;;;;;13.67;8.03;;;;;;;22.21;53.50;99189.41;12247698;19;20025;-79
2023/06/19 01:31:56;;;;;;;11.60;8.23;;;;;;;22.08;55.09;99188.47;12248609;19;20007;-79
2023/06/19 01:35:59;;;;;;;10.65;7.93;;;;;;;21.94;55.68;99201.94;12245189;19;20019;-78
2023/06/19 01:40:04;;;;;;;11.82;8.43;;;;;;;21.80;57.22;99191.81;12238788;19;20014;-78
2023/06/19 01:44:07;;;;;;;11.27;8.20;;;;;;;21.69;57.70;99196.16;12243669;19;20011;-79
2023/06/19 01:48:09;;;;;;;;;;;;;;;21.57;57.57;99194.09;12242492;19;20353;-79
2023/06/19 01:52:13;;;;;;;14.15;7.70;;;;;;;21.51;57.64;99203.03;12245654;19;19910;-78
2023/06/19 01:56:15;;;;;;;10.98;8.55;;;;;;;21.48;57.96;99209.31;12245948;19;20032;-79
2023/06/19 02:00:17;;;;;;;9.38;7.60;;;;;;;21.43;57.92;99206.69;12241959;19;20003;-79
2023/06/19 02:04:19;;;;;;;10.45;7.60;;;;;;;21.33;59.93;99255.50;12242380;19;20006;-78
2023/06/19 02:08:21;;;;;;;15.18;8.40;;;;;;;21.29;59.47;99271.31;12239751;19;20331;-79
2023/06/19 02:12:22;;;;;;;11.80;8.88;;;;;;;21.27;60.67;99280.09;12245758;19;20007;-81
2023/06/19 02:16:24;;;;;;;12.40;8.70;;;;;;;21.25;61.36;99271.19;12240459;19;20026;-81
2023/06/19 02:20:26;;;;;;;12.20;8.47;;;;;;;21.23;61.42;99269.88;12239082;19;20090;-79
2023/06/19 02:24:30;;;;;;;12.02;9.23;;;;;;;21.16;62.19;99278.78;12244781;19;20382;-79
2023/06/19 02:28:32;;;;;;;12.38;7.55;;;;;;;21.13;62.73;99285.06;12242890;19;20016;-79
2023/06/19 02:32:34;;;;;;;10.45;8.00;;;;;;;21.10;63.03;99269.72;12245914;19;20018;-79
2023/06/19 02:36:36;;;;;;;9.82;7.93;;;;;;;21.09;63.56;99281.25;12239908;19;20011;-79
2023/06/19 02:40:39;;;;;;;11.70;8.23;;;;;;;21.07;64.79;99283.59;12237664;19;20006;-79
2023/06/19 02:44:42;;;;;;;;;;;;;;;21.05;64.94;99285.88;12243027;19;20014;-78
2023/06/19 02:48:44;;;;;;;11.90;8.05;;;;;;;21.04;64.62;99298.25;12234486;19;19922;-79
2023/06/19 02:52:45;;;;;;;11.10;8.68;;;;;;;21.04;65.13;99306.66;12237666;19;20011;-78
2023/06/19 02:56:48;;;;;;;12.25;8.52;;;;;;;21.02;66.02;99312.59;12231300;19;20018;-78
2023/06/19 03:00:51;;;;;;;13.02;8.93;;;;;;;21.07;66.02;99320.81;12236759;19;20074;-80
2023/06/19 03:04:53;;;;;;;11.48;8.73;;;;;;;21.14;65.91;99317.50;12240327;19;20576;-79
2023/06/19 03:08:55;;;;;;;10.43;8.30;;;;;;;21.19;66.67;99314.53;12234882;19;20015;-79
2023/06/19 03:12:58;;;;;;;11.25;8.25;;;;;;;21.30;66.40;99334.63;12237501;19;20006;-78
2023/06/19 03:17:00;;;;;;;11.68;7.95;;;;;;;21.38;66.12;99336.59;12237461;19;20002;-79
2023/06/19 03:21:03;;;;;;;11.43;8.63;;;;;;;21.43;66.28;99338.44;12241691;19;20015;-81
2023/06/19 03:25:06;;;;;;;10.23;8.07;;;;;;;21.47;66.85;99345.00;12243267;19;20020;-81
2023/06/19 03:29:08;;;;;;;;;;;;;;;21.44;66.95;99345.66;12239373;19;20613;-80
2023/06/19 03:33:23;;;;;;;14.68;8.57;;;;;;;21.49;67.14;99362.31;12237853;19;19957;-80
2023/06/19 03:37:26;;;;;;;11.30;8.52;;;;;;;21.53;67.16;99357.69;12236277;19;20014;-79
2023/06/19 03:41:28;;;;;;;12.65;8.82;;;;;;;21.61;66.95;99356.84;12232997;19;20703;-80
2023/06/19 03:45:30;;;;;;;13.88;9.48;;;;;;;21.65;66.69;99365.41;12233707;19;20022;-79
2023/06/19 03:49:32;;;;;;;12.52;9.20;;;;;;;21.67;66.94;99366.72;12232835;19;20015;-80
2023/06/19 03:53:34;;;;;;;9.43;7.97;;;;;;;21.67;66.79;99365.91;12235523;19;20015;-79
2023/06/19 03:57:36;;;;;;;11.60;9.33;;;;;;;21.64;67.06;99380.59;12237195;19;20030;-80
2023/06/19 04:01:38;;;;;;;13.00;10.00;;;;;;;21.60;68.16;99391.66;12234138;19;20347;-79
2023/06/19 04:05:42;;;;;;;11.47;9.13;;;;;;;21.56;68.36;99394.28;12243798;19;20011;-80
2023/06/19 04:09:46;;;;;;;11.75;8.90;;;;;;;21.50;69.56;99390.00;12253009;19;20687;-80
2023/06/19 04:13:48;;;;;;;12.27;8.15;;;;;;;21.48;70.15;99388.72;12258207;19;20007;-81
2023/06/19 04:17:49;;;;;;;10.03;8.57;;;;;;;21.46;70.80;99393.81;12245138;19;20021;-79
2023/06/19 04:21:51;;;;;;;9.90;7.20;;;;;;;21.49;71.80;99398.75;12243959;19;20006;-80
2023/06/19 04:25:53;;;;;;;10.32;7.60;;;;;;;21.53;72.37;99405.34;12246322;19;20017;-81
2023/06/19 04:29:55;;;;;;;11.63;8.38;;;;;;;21.60;72.89;99422.50;12242690;19;20016;-79
2023/06/19 04:33:56;;;;;;;10.87;7.13;;;;;;;21.66;74.21;99417.53;12245291;19;20070;-80
2023/06/19 04:38:01;;;;;;;10.45;7.10;;;;;;;21.73;74.28;99420.63;12248667;19;20027;-79
2023/06/19 04:42:02;;;;;;;9.38;6.72;;;;;;;21.77;75.19;99421.59;12242703;19;20007;-78
2023/06/19 04:46:05;;;;;;;9.60;7.47;;;;;;;21.81;75.67;99428.22;12242851;19;20011;-78
2023/06/19 04:50:07;;;;;;;8.67;6.93;;;;;;;21.82;76.42;99422.25;12241538;19;20034;-80
2023/06/19 04:54:09;;;;;;;9.77;7.17;;;;;;;21.78;77.86;99426.06;12241890;19;21104;-79
2023/06/19 04:58:12;;;;;;;8.95;6.50;;;;;;;21.81;79.44;99419.78;12246843;19;20007;-79
2023/06/19 05:02:13;;;;;;;15.43;6.55;;;;;;;21.87;80.00;99431.66;12242315;19;20006;-79
2023/06/19 05:06:15;;;;;;;9.07;6.93;;;;;;;21.95;79.65;99433.59;12240396;19;20011;-78
2023/06/19 05:10:17;;;;;;;8.20;5.70;;;;;;;22.00;80.41;99434.25;12231607;19;20007;-80
2023/06/19 05:14:19;;;;;;;8.85;6.35;;;;;;;22.04;80.68;99445.59;12228801;19;20018;-79
2023/06/19 05:18:22;;;;;;;11.30;5.93;;;;;;;22.05;82.11;99439.69;12240130;19;20021;-78
2023/06/19 05:22:24;;;;;;;;;;;;;;;22.06;83.54;99434.88;12238856;19;20264;-78
2023/06/19 05:26:26;;;;;;;7.53;4.25;;;;;;;22.15;82.26;99430.06;12236243;19;19978;-80
2023/06/19 05:30:28;;;;;;;7.20;4.43;;;;;;;22.23;82.25;99446.06;12233723;19;20007;-77
2023/06/19 05:34:30;;;;;;;5.53;4.25;;;;;;;22.24;83.94;99436.50;12235525;19;20094;-76
2023/06/19 05:38:32;;;;;;;9.88;4.50;;;;;;;22.32;83.66;99434.00;12235340;19;20414;-79
2023/06/19 05:42:34;;;;;;;6.10;4.30;;;;;;;22.38;83.39;99436.28;12234888;19;20031;-79
2023/06/19 05:46:36;;;;;;;6.57;4.53;;;;;;;22.47;82.95;99444.66;12236050;19;20066;-80
2023/06/19 05:50:38;;;;;;;6.97;4.43;;;;;;;22.53;83.73;99451.72;12233067;19;20011;-80
2023/06/19 05:54:43;;;;;;;8.13;4.70;;;;;;;22.57;83.76;99452.69;12238884;19;20019;-78
2023/06/19 05:58:45;;;;;;;7.03;4.45;;;;;;;22.68;82.84;99462.38;12237321;19;20003;-79
2023/06/19 06:02:48;;;;;;;6.88;4.38;;;;;;;22.82;82.69;99461.31;12238628;19;20003;-78
2023/06/19 06:06:50;;;;;;;6.80;4.50;;;;;;;22.98;80.93;99453.94;12234660;19;20028;-78
2023/06/19 06:10:51;;;;;;;7.97;4.53;;;;;;;23.15;80.39;99462.25;12235312;19;20027;-79
2023/06/19 06:14:55;;;;;;;7.38;4.55;;;;;;;23.29;80.06;99472.38;12236072;19;20476;-83
2023/06/19 06:18:56;;;;;;;7.20;4.10;;;;;;;23.37;79.78;99483.56;12234317;19;20114;-78
2023/06/19 06:22:58;;;;;;;6.27;4.73;;;;;;;23.41;78.84;99481.72;12235260;19;20023;-78
2023/06/19 06:27:01;;;;;;;;;;;;;;;23.50;79.54;99475.19;12235894;19;20090;-78
2023/06/19 06:31:04;;;;;;;7.00;4.35;;;;;;;23.67;78.08;99477.84;12233211;19;19911;-80
2023/06/19 06:35:07;;;;;;;9.07;4.70;;;;;;;23.72;78.23;99490.91;12235494;19;20011;-79
2023/06/19 06:39:10;;;;;;;5.75;3.85;;;;;;;23.80;78.11;99484.38;12233200;19;20006;-79
2023/06/19 06:43:12;;;;;;;7.00;4.75;;;;;;;23.90;77.30;99483.13;12229807;19;20018;-79
2023/06/19 06:47:14;;;;;;;9.53;4.60;;;;;;;24.00;76.91;99486.28;12231571;19;20026;-77
2023/06/19 06:51:16;;;;;;;8.15;4.78;;;;;;;23.90;77.32;99483.13;12235080;19;20017;-78
2023/06/19 06:55:20;;;;;;;14.90;5.93;;;;;;;23.99;76.79;99476.22;12229638;19;20006;-80
2023/06/19 06:59:22;;;;;;;8.65;5.30;;;;;;;24.17;75.94;99482.47;12233173;19;20086;-78
2023/06/19 07:03:25;;;;;;;8.30;4.38;;;;;;;24.27;75.38;99481.19;12227688;19;20018;-79
2023/06/19 07:07:28;;;;;;;6.53;4.43;;;;;;;24.59;73.92;99492.75;12231522;19;20021;-78
2023/06/19 07:11:30;;;;;;;5.47;4.67;;;;;;;24.85;72.82;99490.41;12228128;19;20032;-80
2023/06/19 07:15:32;;;;;;;6.47;4.43;;;;;;;25.18;71.79;99490.28;12217280;19;20776;-79
2023/06/19 07:19:35;;;;;;;6.43;4.30;;;;;;;25.54;69.58;99487.72;12231993;19;20390;-79
2023/06/19 07:23:43;;;;;;;8.00;4.45;;;;;;;25.78;67.94;99493.25;12228307;19;20010;-79
2023/06/19 07:27:45;;;;;;;7.88;4.30;;;;;;;25.94;66.64;99493.34;12238389;19;20010;-79
2023/06/19 07:31:47;;;;;;;6.50;4.93;;;;;;;25.95;66.16;99496.97;12238896;19;20100;-80
2023/06/19 07:35:51;;;;;;;6.90;4.55;;;;;;;25.82;66.52;99497.03;12237260;19;20006;-78
2023/06/19 07:39:55;;;;;;;5.18;4.28;;;;;;;25.81;66.97;99498.19;12243097;19;20010;-78
2023/06/19 07:43:57;;;;;;;;;;;;;;;25.71;66.56;99495.88;12251608;19;20022;-79
2023/06/19 07:47:59;;;;;;;5.65;4.18;;;;;;;25.92;66.43;99501.34;12244330;19;19928;-79
2023/06/19 07:52:01;;;;;;;7.30;4.30;;;;;;;26.11;65.11;99509.94;12249900;19;20018;-80
2023/06/19 07:56:03;;;;;;;7.07;4.32;;;;;;;26.18;64.01;99517.78;12246827;19;20014;-80
2023/06/19 08:00:11;;;;;;;5.88;4.32;;;;;;;26.12;64.37;99520.06;12243035;19;20007;-77
2023/06/19 08:04:19;;;;;;;8.93;4.35;;;;;;;26.29;64.02;99518.06;12245937;19;20018;-80
2023/06/19 08:08:21;;;;;;;7.75;4.88;;;;;;;26.64;62.47;99528.69;12239147;19;20003;-79
2023/06/19 08:12:23;;;;;;;6.13;4.38;;;;;;;26.85;61.97;99528.41;12244605;19;20011;-79
2023/06/19 08:16:25;;;;;;;7.35;4.65;;;;;;;26.90;61.35;99530.97;12248166;19;20027;-79
2023/06/19 08:20:28;;;;;;;7.75;4.72;;;;;;;27.08;60.21;99546.34;12242757;19;20695;-77
2023/06/19 08:24:30;;;;;;;6.05;4.32;;;;;;;27.17;59.93;99546.19;12238779;19;20006;-78
2023/06/19 08:28:32;;;;;;;8.77;4.85;;;;;;;27.22;59.68;99552.38;12242489;19;20030;-78
2023/06/19 08:32:34;;;;;;;6.53;4.35;;;;;;;27.58;60.21;99541.06;12244205;19;20481;-78
2023/06/19 08:36:36;;;;;;;7.60;4.80;;;;;;;28.13;57.41;99553.97;12242628;19;20495;-78
2023/06/19 08:40:38;;;;;;;9.73;4.50;;;;;;;28.58;55.79;99543.91;12238940;19;20011;-77
2023/06/19 08:44:41;;;;;;;10.25;5.40;;;;;;;28.84;53.74;99559.34;12244243;19;20484;-80
2023/06/19 08:48:45;;;;;;;5.63;4.40;;;;;;;28.68;54.22;99555.84;12241673;19;20011;-76
2023/06/19 08:52:49;;;;;;;7.45;4.80;;;;;;;28.32;55.80;99552.31;12239309;19;20010;-77
2023/06/19 08:56:53;;;;;;;8.10;4.50;;;;;;;28.51;54.75;99557.13;12241238;19;20066;-78
2023/06/19 09:00:58;;;;;;;5.63;4.60;;;;;;;28.31;55.15;99554.31;12239473;19;20014;-76
2023/06/19 09:05:10;;;;;;;7.38;5.10;;;;;;;28.25;55.79;99547.31;12239717;19;20019;-77
2023/06/19 09:09:13;;;;;;;7.50;5.03;;;;;;;28.43;56.30;99550.50;12238274;19;20346;-78
2023/06/19 09:13:18;;;;;;;8.93;5.20;;;;;;;28.70;54.65;99550.59;12240738;19;20014;-81
2023/06/19 09:17:21;;;;;;;7.15;5.32;;;;;;;28.56;55.11;99554.00;12244205;19;20027;-79
2023/06/19 09:21:28;;;;;;;8.50;5.25;;;;;;;28.54;55.65;99557.19;12237926;19;20389;-79
2023/06/19 09:25:32;;;;;;;7.10;5.60;;;;;;;28.59;54.77;99558.91;12232896;19;20096;-82
2023/06/19 09:29:42;;;;;;;5.78;5.10;;;;;;;28.88;53.96;99565.88;12235041;19;20010;-78
2023/06/19 09:33:45;;;;;;;9.20;5.05;;;;;;;29.01;53.54;99563.69;12241954;19;20007;-78
2023/06/19 09:37:48;;;;;;;6.75;5.45;;;;;;;28.98;53.62;99564.44;12238896;19;20477;-78
2023/06/19 09:41:53;;;;;;;8.27;4.82;;;;;;;29.43;53.07;99559.91;12239680;19;20153;-78
2023/06/19 09:45:57;;;;;;;10.00;5.03;;;;;;;29.43;52.32;99555.03;12236372;19;20476;-78
2023/06/19 09:50:02;;;;;;;10.30;5.38;;;;;;;29.17;52.49;99549.38;12240816;19;20019;-80
2023/06/19 09:54:06;;;;;;;7.15;5.25;;;;;;;29.09;53.16;99554.09;12247828;19;20017;-79
2023/06/19 09:58:09;;;;;;;7.10;5.03;;;;;;;29.30;52.13;99554.44;12246481;19;20353;-79
2023/06/19 10:02:11;;;;;;;6.57;5.47;;;;;;;29.43;51.12;99542.88;12239671;19;20348;-78
2023/06/19 10:06:17;;;;;;;7.00;5.15;;;;;;;29.57;50.95;99540.22;12245269;19;20007;-79
2023/06/19 10:10:26;;;;;;;8.13;5.07;;;;;;;29.83;49.37;99542.19;12236546;19;20365;-77
2023/06/19 10:14:30;;;;;;;6.88;4.53;;;;;;;30.03;49.19;99547.72;12229489;19;20477;-77
2023/06/19 10:18:46;;;;;;;9.32;5.10;;;;;;;30.26;48.94;99547.63;12233433;19;20023;-78
2023/06/19 10:22:59;;;;;;;7.35;4.55;;;;;;;30.49;46.91;99553.13;12232934;19;20006;-77
2023/06/19 10:27:02;;;;;;;;;;;;;;;30.51;46.19;99539.34;12230404;19;20006;-80
2023/06/19 10:31:08;;;;;;;6.38;4.85;;;;;;;30.73;45.91;99546.88;12229600;19;19937;-79
2023/06/19 10:35:12;;;;;;;6.45;4.72;;;;;;;30.72;45.44;99547.25;12232419;19;20432;-79
2023/06/19 10:39:19;;;;;;;5.85;4.32;;;;;;;30.83;45.28;99548.19;12233872;19;20118;-79
2023/06/19 10:43:25;;;;;;;8.25;5.38;;;;;;;31.05;44.64;99534.94;12230882;19;20014;-79
2023/06/19 10:47:28;;;;;;;7.47;5.07;;;;;;;30.83;44.90;99537.63;12228593;19;19998;-77
2023/06/19 10:51:34;;;;;;;7.85;4.90;;;;;;;30.62;45.28;99537.41;12229614;19;20026;-77
2023/06/19 10:55:36;;;;;;;6.47;4.47;;;;;;;30.20;45.34;99535.75;12232739;19;20015;-78
2023/06/19 10:59:39;;;;;;;;;;;;;;;30.25;45.98;99518.34;12227980;19;20031;-76
2023/06/19 11:03:42;;;;;;;7.07;4.40;;;;;;;30.55;44.70;99526.81;12226265;19;19940;-78
2023/06/19 11:07:56;;;;;;;7.03;4.55;;;;;;;30.51;44.40;99530.81;12230693;19;20126;-78
2023/06/19 11:11:59;;;;;;;5.75;4.40;;;;;;;30.48;44.22;99521.03;12228155;19;20002;-78
2023/06/19 11:16:01;;;;;;;7.25;4.47;;;;;;;30.42;44.06;99526.25;12229448;19;20011;-77
2023/06/19 11:20:05;;;;;;;6.80;4.25;;;;;;;30.68;43.75;99513.09;12225759;19;20732;-77
2023/06/19 11:24:13;;;;;;;6.63;4.00;;;;;;;31.10;43.18;99503.28;12226663;19;20017;-78
2023/06/19 11:28:22;;;;;;;7.20;4.68;;;;;;;31.33;42.07;99503.84;12223199;19;20035;-78
2023/06/19 11:32:30;;;;;;;5.57;4.00;;;;;;;31.42;41.55;99499.88;12225405;19;20126;-78
2023/06/19 11:36:37;;;;;;;6.35;4.53;;;;;;;31.73;40.62;99502.03;12226101;19;20010;-79
2023/06/19 11:40:40;;;;;;;4.68;3.97;;;;;;;31.53;39.92;99490.16;12223808;19;20371;-79
2023/06/19 11:44:59;;;;;;;5.20;4.20;;;;;;;31.54;39.24;99502.38;12234547;19;20741;-79
2023/06/19 11:49:19;;;;;;;9.30;4.43;;;;;;;31.81;39.50;99493.53;12222837;19;21332;-79
2023/06/19 11:53:40;;;;;;;6.05;4.50;;;;;;;32.18;39.54;99496.91;12230182;19;20354;-79
2023/06/19 11:57:43;;;;;;;6.78;4.82;;;;;;;32.61;38.74;99487.63;12225479;19;21956;-79
2023/06/19 12:01:45;;;;;;;5.85;4.50;;;;;;;32.70;38.47;99496.59;12228329;19;20018;-78
2023/06/19 12:05:50;;;;;;;6.68;4.28;;;;;;;32.61;37.28;99496.19;12229918;19;20333;-78
2023/06/19 12:09:55;;;;;;;5.82;4.18;;;;;;;32.86;36.54;99490.47;12226280;19;20031;-79
2023/06/19 12:14:00;;;;;;;4.50;3.88;;;;;;;33.04;36.09;99490.47;12243623;19;20055;-83
2023/06/19 12:18:03;;;;;;;5.10;4.20;;;;;;;32.85;36.96;99488.84;12237319;19;20011;-81
2023/06/19 12:22:05;;;;;;;5.72;4.63;;;;;;;32.90;36.88;99483.53;12226899;19;20002;-81
2023/06/19 12:26:08;;;;;;;7.38;4.90;;;;;;;32.95;37.08;99475.78;12232447;19;20094;-82
2023/06/19 12:30:10;;;;;;;;;;;;;;;32.63;37.44;99477.44;12235388;19;20031;-80
2023/06/19 12:34:12;;;;;;;;;;;;;;;32.39;37.63;99473.34;12232774;19;19918;-80
2023/06/19 12:38:31;;;;;;;5.85;4.28;;;;;;;32.64;36.93;99476.22;12242266;19;20275;-80
2023/06/19 12:42:35;;;;;;;5.22;4.70;;;;;;;33.58;35.41;99472.03;12243116;19;20021;-78
2023/06/19 12:46:37;;;;;;;5.93;4.55;;;;;;;34.74;33.89;99461.50;12242338;19;20017;-79
2023/06/19 12:50:42;;;;;;;7.30;5.20;;;;;;;35.38;33.40;99465.78;12234997;19;20018;-79
2023/06/19 12:54:45;;;;;;;5.50;4.78;;;;;;;35.79;32.62;99465.72;12241171;19;20010;-79
2023/06/19 12:58:47;;;;;;;7.18;5.93;;;;;;;35.64;32.32;99447.09;12242414;19;20464;-78
2023/06/19 13:02:49;;;;;;;7.55;5.28;;;;;;;35.29;32.81;99451.16;12231923;19;20018;-78
2023/06/19 13:06:51;;;;;;;6.40;4.97;;;;;;;35.00;32.96;99464.94;12240628;19;20017;-76
2023/06/19 13:10:53;;;;;;;6.05;5.20;;;;;;;34.65;32.50;99455.44;12234869;19;20025;-77
2023/06/19 13:14:54;;;;;;;5.25;4.75;;;;;;;34.69;32.81;99457.06;12239819;19;20006;-80
2023/06/19 13:18:56;;;;;;;9.60;5.00;;;;;;;34.75;32.44;99457.41;12237037;19;20481;-75
2023/06/19 13:22:58;;;;;;;7.40;5.45;;;;;;;35.32;31.95;99456.03;12235076;19;20048;-77
2023/06/19 13:27:00;;;;;;;6.78;4.65;;;;;;;35.72;31.44;99460.06;12234875;19;20479;-76
2023/06/19 13:31:02;;;;;;;7.55;5.15;;;;;;;36.47;30.73;99455.28;12202639;19;20034;-76
2023/06/19 13:35:06;;;;;;;5.13;4.30;;;;;;;37.99;27.68;99466.44;12233856;19;20015;-79
2023/06/19 13:39:08;;;;;;;4.88;4.03;;;;;;;37.78;28.00;99454.13;12231887;19;20007;-78
2023/06/19 13:43:14;;;;;;;5.38;4.50;;;;;;;36.59;28.87;99449.00;12234320;19;20007;-76
2023/06/19 13:47:16;;;;;;;6.10;4.60;;;;;;;36.58;28.89;99447.34;12235131;19;20036;-79
2023/06/19 13:51:19;;;;;;;7.35;4.35;;;;;;;38.13;27.54;99448.81;12235571;19;20003;-78
2023/06/19 13:55:22;;;;;;;6.68;4.13;;;;;;;39.96;25.19;99436.09;12236244;19;20500;-76
2023/06/19 13:59:26;;;;;;;4.25;3.75;;;;;;;41.30;24.14;99419.63;12238460;19;20011;-79
2023/06/19 14:03:28;;;;;;;4.22;3.70;;;;;;;41.94;23.20;99407.69;12241744;19;20006;-79
2023/06/19 14:07:30;;;;;;;6.15;3.58;;;;;;;42.19;22.32;99411.66;12239882;19;20010;-77
2023/06/19 14:11:32;;;;;;;6.20;3.60;;;;;;;41.87;22.37;99402.97;12232678;19;20010;-78
2023/06/19 14:15:34;;;;;;;5.70;3.35;;;;;;;42.56;21.71;99392.31;12236454;19;20467;-79
2023/06/19 14:19:38;;;;;;;7.80;3.90;;;;;;;42.84;21.56;99393.19;12235126;19;20881;-79
2023/06/19 14:23:43;;;;;;;3.47;3.15;;;;;;;42.14;21.93;99383.34;12232998;19;20768;-78
2023/06/19 14:27:45;;;;;;;4.30;3.80;;;;;;;41.36;22.84;99385.94;12233700;19;20010;-80
2023/06/19 14:31:52;;;;;;;5.70;3.30;;;;;;;40.41;22.75;99379.44;12226639;19;20010;-78
2023/06/19 14:35:54;;;;;;;4.20;3.80;;;;;;;39.27;24.26;99384.59;12234791;19;20366;-78
2023/06/19 14:39:56;;;;;;;5.53;3.90;;;;;;;39.31;24.17;99382.44;12231037;19;20010;-77
2023/06/19 14:43:58;;;;;;;6.13;3.65;;;;;;;39.97;24.15;99387.88;12230862;19;20078;-78
2023/06/19 14:48:00;;;;;;;4.18;3.42;;;;;;;40.82;23.42;99377.63;12230353;19;20078;-76
2023/06/19 14:52:04;;;;;;;5.80;3.38;;;;;;;41.90;22.06;99381.00;12232479;19;20349;-78
2023/06/19 14:56:08;;;;;;;5.53;3.78;;;;;;;42.39;21.82;99391.00;12233958;19;20006;-77
2023/06/19 15:00:11;;;;;;;4.82;3.70;;;;;;;40.93;22.97;99375.97;12234403;19;20011;-77
2023/06/19 15:04:13;;;;;;;4.05;3.03;;;;;;;39.11;24.58;99373.13;12231657;19;20010;-78
2023/06/19 15:08:21;;;;;;;7.13;3.97;;;;;;;37.96;26.10;99384.72;12229027;19;20419;-80
2023/06/19 15:12:23;;;;;;;5.05;3.60;;;;;;;36.83;27.02;99380.09;12232704;19;19999;-77
2023/06/19 15:16:25;;;;;;;4.20;3.42;;;;;;;36.06;27.95;99370.31;12233097;19;20015;-78
2023/06/19 15:20:27;;;;;;;6.78;4.38;;;;;;;35.36;28.95;99374.53;12231477;19;20019;-78
2023/06/19 15:24:28;;;;;;;6.07;3.92;;;;;;;34.82;30.05;99368.59;12230560;19;20070;-78
2023/06/19 15:28:32;;;;;;;6.80;3.80;;;;;;;34.29;30.48;99371.97;12230495;19;20480;-78
2023/06/19 15:32:34;;;;;;;4.53;3.67;;;;;;;33.69;31.63;99374.00;12224013;19;20023;-77
2023/06/19 15:36:38;;;;;;;7.50;3.75;;;;;;;33.34;31.73;99365.16;12230860;19;20007;-78
2023/06/19 15:40:40;;;;;;;8.13;3.97;;;;;;;33.08;32.33;99371.41;12229418;19;20028;-77
2023/06/19 15:44:42;;;;;;;5.55;3.92;;;;;;;32.80;33.04;99360.84;12228185;19;20028;-76
2023/06/19 15:48:44;;;;;;;4.00;3.25;;;;;;;32.82;33.17;99359.22;12227627;19;20007;-77
2023/06/19 15:52:46;;;;;;;6.50;3.67;;;;;;;32.78;33.63;99358.44;12228422;19;20468;-77
2023/06/19 15:56:49;;;;;;;5.00;3.83;;;;;;;32.58;33.72;99354.41;12231898;19;20090;-77
2023/06/19 16:00:52;;;;;;;7.90;3.83;;;;;;;32.33;34.51;99354.38;12231735;19;20472;-77
2023/06/19 16:04:54;;;;;;;6.03;3.83;;;;;;;32.02;34.97;99353.19;12237839;19;20006;-77
2023/06/19 16:09:01;;;;;;;5.55;3.67;;;;;;;32.09;34.92;99344.63;12238339;19;20014;-77
2023/06/19 16:13:03;;;;;;;4.28;3.50;;;;;;;32.11;35.03;99340.13;12241062;19;20010;-77
2023/06/19 16:17:06;;;;;;;7.53;3.85;;;;;;;32.12;35.31;99332.41;12240110;19;20006;-76
2023/06/19 16:21:08;;;;;;;4.68;3.63;;;;;;;32.22;34.98;99320.19;12235212;19;20031;-76
2023/06/19 16:25:10;;;;;;;6.43;4.32;;;;;;;32.19;35.40;99321.00;12235850;19;20010;-76
2023/06/19 16:29:13;;;;;;;6.45;4.10;;;;;;;31.91;36.02;99321.81;12230077;19;20018;-75
2023/06/19 16:33:16;;;;;;;6.95;3.83;;;;;;;31.60;36.87;99321.34;12226371;19;20489;-77
2023/06/19 16:37:19;;;;;;;5.45;3.90;;;;;;;31.33;36.74;99309.47;12235444;19;20010;-75
2023/06/19 16:41:22;;;;;;;8.38;3.92;;;;;;;31.08;37.05;99312.22;12234247;19;20433;-77
2023/06/19 16:45:26;;;;;;;4.55;3.90;;;;;;;31.02;37.46;99326.00;12223446;19;20010;-77
2023/06/19 16:49:28;;;;;;;7.75;4.47;;;;;;;30.94;37.72;99321.53;12230877;19;20473;-76
2023/06/19 16:53:30;;;;;;;5.28;4.47;;;;;;;30.94;38.56;99332.09;12234272;19;20003;-75
2023/06/19 16:57:32;;;;;;;9.40;4.35;;;;;;;30.83;38.36;99326.34;12235165;19;20035;-76
2023/06/19 17:01:34;;;;;;;5.53;4.45;;;;;;;30.68;38.60;99325.41;12236771;19;20039;-75
2023/06/19 17:05:36;;;;;;;;;;;;;;;30.40;38.88;99337.41;12233557;19;20035;-77
2023/06/19 17:09:38;;;;;;;7.30;4.33;;;;;;;30.22;39.96;99331.59;12231202;19;19939;-77
2023/06/19 17:13:40;;;;;;;;;;;;;;;30.15;40.00;99337.19;12232935;19;20460;-77
2023/06/19 17:17:41;;;;;;;9.02;4.63;;;;;;;30.22;40.30;99327.94;12236153;19;19919;-78
2023/06/19 17:21:43;;;;;;;5.87;4.33;;;;;;;30.27;40.31;99330.41;12239684;19;20042;-77
2023/06/19 17:25:45;;;;;;;8.73;4.68;;;;;;;30.28;40.26;99332.03;12236676;19;20006;-77
2023/06/19 17:29:47;;;;;;;;;;;;;;;30.41;40.20;99333.38;12239798;19;20014;-78
2023/06/19 17:33:49;;;;;;;7.43;4.50;;;;;;;30.48;40.02;99324.88;12236174;19;19928;-78
2023/06/19 17:37:50;;;;;;;7.68;5.03;;;;;;;30.28;40.40;99324.34;12239381;19;20259;-79
2023/06/19 17:41:52;;;;;;;8.15;4.90;;;;;;;30.03;40.92;99328.97;12241001;19;20015;-81
2023/06/19 17:45:54;;;;;;;6.43;5.20;;;;;;;29.88;41.62;99328.03;12235788;19;20406;-81
2023/06/19 17:49:56;;;;;;;4.85;4.20;;;;;;;29.65;42.03;99336.72;12236908;19;20374;-78
2023/06/19 17:53:58;;;;;;;6.22;4.50;;;;;;;29.42;43.20;99329.19;12239717;19;20019;-78
2023/06/19 17:58:02;;;;;;;9.73;4.70;;;;;;;29.23;43.40;99340.69;12240522;19;20578;-79
2023/06/19 18:02:04;;;;;;;7.40;4.68;;;;;;;29.12;43.80;99351.94;12243181;19;20007;-79
2023/06/19 18:06:06;;;;;;;7.50;4.85;;;;;;;29.03;44.60;99340.88;12240519;19;20025;-80
2023/06/19 18:10:08;;;;;;;7.32;4.30;;;;;;;28.92;45.28;99339.88;12237316;19;20334;-80
2023/06/19 18:14:13;;;;;;;6.70;4.18;;;;;;;28.83;46.25;99331.69;12242967;19;20003;-78
2023/06/19 18:18:15;;;;;;;6.47;4.38;;;;;;;28.72;47.31;99329.91;12242324;19;20074;-78
2023/06/19 18:22:17;;;;;;;7.15;4.78;;;;;;;28.57;47.65;99337.38;12240719;19;20014;-78
2023/06/19 18:26:19;;;;;;;8.35;4.53;;;;;;;28.43;48.38;99337.97;12245312;19;20479;-82
2023/06/19 18:30:21;;;;;;;6.03;4.95;;;;;;;28.32;48.86;99334.97;12239268;19;20096;-81
2023/06/19 18:34:24;;;;;;;6.50;4.90;;;;;;;28.27;49.94;99337.28;12238748;19;20002;-78
2023/06/19 18:38:26;;;;;;;7.35;5.25;;;;;;;28.11;50.76;99341.09;12240557;19;20011;-78
2023/06/19 18:42:31;;;;;;;8.50;4.90;;;;;;;27.96;51.45;99333.53;12234928;19;20078;-79
2023/06/19 18:46:32;;;;;;;6.07;4.57;;;;;;;27.82;52.13;99336.16;12236279;19;20022;-79
2023/06/19 18:50:36;;;;;;;7.15;5.05;;;;;;;27.63;53.03;99332.13;12234791;19;20007;-80
2023/06/19 18:54:38;;;;;;;5.95;4.53;;;;;;;27.45;53.95;99336.63;12240584;19;20014;-78